weather.gov     
National Weather Service

Terminal Aerodrome Forecast
NWS Homepage
This page is being discontinued on March 12, 2014.
The same data is available at this site. Please update your bookmarks.
Thank you, and we apologize for the inconvenience.
Please send an email to SR-SRH.Webmaster@noaa.gov with any concerns.


Current Version
Previous Version:    01  02  03  04  05  06  07  08  09  10  11  12  13  14  15  16  17  18  19  20  21  22  23  24  25  26  27  28  29  
[Printable]
761
FTUS41 KBOX 211122
TAFACK
TAF
KACK 211122Z 2112/2212 14010KT P6SM SCT150
     FM211500 14012KT P6SM BKN090
     FM212100 10009KT 6SM BR OVC040
     FM220000 00000KT 5SM BR OVC008
     FM220500 27007KT 5SM BR BKN010
     FM221100 26008KT 3SM BR BKN250=




761
FTUS41 KBOX 211122
TAFACK
TAF
KACK 211122Z 2112/2212 14010KT P6SM SCT150
     FM211500 14012KT P6SM BKN090
     FM212100 10009KT 6SM BR OVC040
     FM220000 00000KT 5SM BR OVC008
     FM220500 27007KT 5SM BR BKN010
     FM221100 26008KT 3SM BR BKN250=


U.S. Dept. of Commerce
NOAA National Weather Service
1325 East West Highway
Silver Spring, MD 20910
E-mail: w-nws.webmaster@noaa.gov
Page last modified: May 16, 2007
NATIONAL WEATHER SERVICE: for Safety, for Work, for Fun - FOR LIFE